sensor_id;sensor_type;location;lat;lon;timestamp;P1;durP1;ratioP1;P2;durP2;ratioP2
8626;SDS011;4351;51.422;6.794;2023-05-23T00:02:14;8.20;;;6.20;;
8626;SDS011;4351;51.422;6.794;2023-05-23T00:04:42;8.63;;;6.13;;
8626;SDS011;4351;51.422;6.794;2023-05-23T00:07:10;7.50;;;5.67;;
8626;SDS011;4351;51.422;6.794;2023-05-23T00:09:38;6.70;;;4.87;;
8626;SDS011;4351;51.422;6.794;2023-05-23T00:12:06;8.57;;;5.10;;
8626;SDS011;4351;51.422;6.794;2023-05-23T00:14:35;7.97;;;5.30;;
8626;SDS011;4351;51.422;6.794;2023-05-23T00:17:05;8.10;;;5.10;;
8626;SDS011;4351;51.422;6.794;2023-05-23T00:19:36;7.33;;;4.80;;
8626;SDS011;4351;51.422;6.794;2023-05-23T00:22:04;7.43;;;4.87;;
8626;SDS011;4351;51.422;6.794;2023-05-23T00:24:31;8.80;;;4.60;;
8626;SDS011;4351;51.422;6.794;2023-05-23T00:26:59;6.63;;;4.53;;
8626;SDS011;4351;51.422;6.794;2023-05-23T00:29:27;5.70;;;4.50;;
8626;SDS011;4351;51.422;6.794;2023-05-23T00:31:57;5.03;;;4.23;;
8626;SDS011;4351;51.422;6.794;2023-05-23T00:34:24;6.90;;;4.53;;
8626;SDS011;4351;51.422;6.794;2023-05-23T00:36:52;7.20;;;4.63;;
8626;SDS011;4351;51.422;6.794;2023-05-23T00:39:20;6.10;;;4.23;;
8626;SDS011;4351;51.422;6.794;2023-05-23T00:41:48;5.07;;;4.13;;
8626;SDS011;4351;51.422;6.794;2023-05-23T00:44:18;7.03;;;4.33;;
8626;SDS011;4351;51.422;6.794;2023-05-23T00:46:48;7.23;;;4.73;;
8626;SDS011;4351;51.422;6.794;2023-05-23T00:49:20;6.77;;;4.97;;
8626;SDS011;4351;51.422;6.794;2023-05-23T00:51:48;5.93;;;4.63;;
8626;SDS011;4351;51.422;6.794;2023-05-23T00:54:19;8.13;;;5.20;;
8626;SDS011;4351;51.422;6.794;2023-05-23T00:56:53;6.20;;;4.50;;
8626;SDS011;4351;51.422;6.794;2023-05-23T00:59:21;6.50;;;4.10;;
8626;SDS011;4351;51.422;6.794;2023-05-23T01:01:51;7.90;;;4.40;;
8626;SDS011;4351;51.422;6.794;2023-05-23T01:04:22;5.57;;;4.37;;
8626;SDS011;4351;51.422;6.794;2023-05-23T01:06:53;4.93;;;4.27;;
8626;SDS011;4351;51.422;6.794;2023-05-23T01:09:21;5.70;;;4.23;;
8626;SDS011;4351;51.422;6.794;2023-05-23T01:12:04;5.27;;;4.63;;
8626;SDS011;4351;51.422;6.794;2023-05-23T01:14:44;6.27;;;4.60;;
8626;SDS011;4351;51.422;6.794;2023-05-23T01:17:17;6.40;;;5.03;;
8626;SDS011;4351;51.422;6.794;2023-05-23T01:19:53;6.03;;;4.47;;
8626;SDS011;4351;51.422;6.794;2023-05-23T01:22:32;5.47;;;4.63;;
8626;SDS011;4351;51.422;6.794;2023-05-23T01:25:09;4.83;;;4.33;;
8626;SDS011;4351;51.422;6.794;2023-05-23T01:27:48;6.87;;;5.10;;
8626;SDS011;4351;51.422;6.794;2023-05-23T01:30:19;5.50;;;4.80;;
8626;SDS011;4351;51.422;6.794;2023-05-23T01:32:47;6.17;;;4.23;;
8626;SDS011;4351;51.422;6.794;2023-05-23T01:35:21;6.03;;;4.30;;
8626;SDS011;4351;51.422;6.794;2023-05-23T01:37:53;7.37;;;4.70;;
8626;SDS011;4351;51.422;6.794;2023-05-23T01:40:22;5.60;;;4.23;;
8626;SDS011;4351;51.422;6.794;2023-05-23T01:42:52;5.00;;;4.20;;
8626;SDS011;4351;51.422;6.794;2023-05-23T01:45:23;6.43;;;4.47;;
8626;SDS011;4351;51.422;6.794;2023-05-23T01:47:53;5.80;;;4.53;;
8626;SDS011;4351;51.422;6.794;2023-05-23T01:50:22;7.10;;;4.83;;
8626;SDS011;4351;51.422;6.794;2023-05-23T01:52:51;8.40;;;5.37;;
8626;SDS011;4351;51.422;6.794;2023-05-23T01:55:21;6.00;;;4.87;;
8626;SDS011;4351;51.422;6.794;2023-05-23T01:57:54;7.47;;;4.87;;
8626;SDS011;4351;51.422;6.794;2023-05-23T02:00:23;6.73;;;5.00;;
8626;SDS011;4351;51.422;6.794;2023-05-23T02:02:51;6.47;;;5.10;;
8626;SDS011;4351;51.422;6.794;2023-05-23T02:05:19;6.97;;;4.97;;
8626;SDS011;4351;51.422;6.794;2023-05-23T02:07:47;6.67;;;4.97;;
8626;SDS011;4351;51.422;6.794;2023-05-23T02:10:16;7.40;;;5.20;;
8626;SDS011;4351;51.422;6.794;2023-05-23T02:12:44;5.27;;;4.63;;
8626;SDS011;4351;51.422;6.794;2023-05-23T02:15:13;6.60;;;5.43;;
8626;SDS011;4351;51.422;6.794;2023-05-23T02:17:42;6.23;;;4.83;;
8626;SDS011;4351;51.422;6.794;2023-05-23T02:20:10;8.23;;;5.23;;
8626;SDS011;4351;51.422;6.794;2023-05-23T02:22:39;11.87;;;5.40;;
8626;SDS011;4351;51.422;6.794;2023-05-23T02:25:07;8.43;;;5.10;;
8626;SDS011;4351;51.422;6.794;2023-05-23T02:27:38;9.57;;;5.40;;
8626;SDS011;4351;51.422;6.794;2023-05-23T02:30:06;7.80;;;5.20;;
8626;SDS011;4351;51.422;6.794;2023-05-23T02:32:36;8.30;;;5.23;;
8626;SDS011;4351;51.422;6.794;2023-05-23T02:35:04;8.43;;;5.43;;
8626;SDS011;4351;51.422;6.794;2023-05-23T02:37:33;7.63;;;5.20;;
8626;SDS011;4351;51.422;6.794;2023-05-23T02:40:03;8.57;;;5.57;;
8626;SDS011;4351;51.422;6.794;2023-05-23T02:42:34;9.20;;;5.50;;
8626;SDS011;4351;51.422;6.794;2023-05-23T02:45:02;10.37;;;5.97;;
8626;SDS011;4351;51.422;6.794;2023-05-23T02:47:31;10.80;;;6.20;;
8626;SDS011;4351;51.422;6.794;2023-05-23T02:50:00;12.27;;;5.67;;
8626;SDS011;4351;51.422;6.794;2023-05-23T02:52:28;10.43;;;6.50;;
8626;SDS011;4351;51.422;6.794;2023-05-23T02:54:57;9.80;;;6.43;;
8626;SDS011;4351;51.422;6.794;2023-05-23T02:57:25;9.50;;;6.13;;
8626;SDS011;4351;51.422;6.794;2023-05-23T02:59:55;11.70;;;7.00;;
8626;SDS011;4351;51.422;6.794;2023-05-23T03:02:23;12.63;;;6.67;;
8626;SDS011;4351;51.422;6.794;2023-05-23T03:04:52;12.37;;;7.47;;
8626;SDS011;4351;51.422;6.794;2023-05-23T03:07:22;11.47;;;6.87;;
8626;SDS011;4351;51.422;6.794;2023-05-23T03:09:54;10.47;;;7.07;;
8626;SDS011;4351;51.422;6.794;2023-05-23T03:12:22;12.77;;;8.93;;
8626;SDS011;4351;51.422;6.794;2023-05-23T03:14:51;10.93;;;7.57;;
8626;SDS011;4351;51.422;6.794;2023-05-23T03:17:19;13.03;;;7.60;;
8626;SDS011;4351;51.422;6.794;2023-05-23T03:19:48;10.07;;;6.10;;
8626;SDS011;4351;51.422;6.794;2023-05-23T03:22:17;9.50;;;7.10;;
8626;SDS011;4351;51.422;6.794;2023-05-23T03:24:46;12.20;;;6.97;;
8626;SDS011;4351;51.422;6.794;2023-05-23T03:27:15;9.67;;;6.80;;
8626;SDS011;4351;51.422;6.794;2023-05-23T03:29:43;8.97;;;6.20;;
8626;SDS011;4351;51.422;6.794;2023-05-23T03:32:14;10.00;;;5.30;;
8626;SDS011;4351;51.422;6.794;2023-05-23T03:34:42;9.00;;;5.80;;
8626;SDS011;4351;51.422;6.794;2023-05-23T03:37:10;8.77;;;5.07;;
8626;SDS011;4351;51.422;6.794;2023-05-23T03:39:38;8.90;;;5.23;;
8626;SDS011;4351;51.422;6.794;2023-05-23T03:42:07;8.73;;;5.20;;
8626;SDS011;4351;51.422;6.794;2023-05-23T03:44:35;9.73;;;4.90;;
8626;SDS011;4351;51.422;6.794;2023-05-23T03:47:05;9.63;;;5.17;;
8626;SDS011;4351;51.422;6.794;2023-05-23T03:49:36;10.03;;;5.37;;
8626;SDS011;4351;51.422;6.794;2023-05-23T03:52:04;10.53;;;5.53;;
8626;SDS011;4351;51.422;6.794;2023-05-23T03:54:33;11.30;;;5.00;;
8626;SDS011;4351;51.422;6.794;2023-05-23T03:57:01;10.10;;;5.53;;
8626;SDS011;4351;51.422;6.794;2023-05-23T03:59:30;9.23;;;5.93;;
8626;SDS011;4351;51.422;6.794;2023-05-23T04:01:58;9.67;;;5.90;;
8626;SDS011;4351;51.422;6.794;2023-05-23T04:04:28;10.23;;;5.70;;
8626;SDS011;4351;51.422;6.794;2023-05-23T04:06:57;8.77;;;5.47;;
8626;SDS011;4351;51.422;6.794;2023-05-23T04:09:27;11.03;;;5.70;;
8626;SDS011;4351;51.422;6.794;2023-05-23T04:11:56;10.13;;;6.27;;
8626;SDS011;4351;51.422;6.794;2023-05-23T04:14:24;10.20;;;5.90;;
8626;SDS011;4351;51.422;6.794;2023-05-23T04:16:55;10.03;;;5.53;;
8626;SDS011;4351;51.422;6.794;2023-05-23T04:19:23;12.03;;;5.90;;
8626;SDS011;4351;51.422;6.794;2023-05-23T04:21:52;7.63;;;5.80;;
8626;SDS011;4351;51.422;6.794;2023-05-23T04:24:20;10.67;;;5.70;;
8626;SDS011;4351;51.422;6.794;2023-05-23T04:26:48;9.00;;;5.90;;
8626;SDS011;4351;51.422;6.794;2023-05-23T04:29:16;13.13;;;6.07;;
8626;SDS011;4351;51.422;6.794;2023-05-23T04:31:44;9.13;;;5.40;;
8626;SDS011;4351;51.422;6.794;2023-05-23T04:34:14;10.23;;;6.43;;
8626;SDS011;4351;51.422;6.794;2023-05-23T04:36:42;11.37;;;6.40;;
8626;SDS011;4351;51.422;6.794;2023-05-23T04:39:11;11.07;;;7.97;;
8626;SDS011;4351;51.422;6.794;2023-05-23T04:41:48;12.00;;;7.50;;
8626;SDS011;4351;51.422;6.794;2023-05-23T04:44:23;10.60;;;7.03;;
8626;SDS011;4351;51.422;6.794;2023-05-23T04:47:08;11.53;;;8.10;;
8626;SDS011;4351;51.422;6.794;2023-05-23T04:49:51;17.37;;;10.43;;
8626;SDS011;4351;51.422;6.794;2023-05-23T04:52:20;14.57;;;9.27;;
8626;SDS011;4351;51.422;6.794;2023-05-23T04:54:48;13.53;;;8.37;;
8626;SDS011;4351;51.422;6.794;2023-05-23T04:57:16;11.00;;;8.23;;
8626;SDS011;4351;51.422;6.794;2023-05-23T04:59:44;12.13;;;7.80;;
8626;SDS011;4351;51.422;6.794;2023-05-23T05:02:12;14.07;;;9.20;;
8626;SDS011;4351;51.422;6.794;2023-05-23T05:04:40;13.80;;;8.47;;
8626;SDS011;4351;51.422;6.794;2023-05-23T05:07:10;16.77;;;9.57;;
8626;SDS011;4351;51.422;6.794;2023-05-23T05:09:38;11.50;;;7.93;;
8626;SDS011;4351;51.422;6.794;2023-05-23T05:12:09;12.00;;;7.23;;
8626;SDS011;4351;51.422;6.794;2023-05-23T05:14:38;12.77;;;7.57;;
8626;SDS011;4351;51.422;6.794;2023-05-23T05:17:06;12.00;;;8.27;;
8626;SDS011;4351;51.422;6.794;2023-05-23T05:19:42;15.10;;;8.17;;
8626;SDS011;4351;51.422;6.794;2023-05-23T05:22:12;14.57;;;9.10;;
8626;SDS011;4351;51.422;6.794;2023-05-23T05:24:41;18.77;;;9.83;;
8626;SDS011;4351;51.422;6.794;2023-05-23T05:27:08;15.40;;;8.90;;
8626;SDS011;4351;51.422;6.794;2023-05-23T05:29:37;13.83;;;8.47;;
8626;SDS011;4351;51.422;6.794;2023-05-23T05:32:05;12.80;;;8.07;;
8626;SDS011;4351;51.422;6.794;2023-05-23T05:34:34;14.10;;;8.00;;
8626;SDS011;4351;51.422;6.794;2023-05-23T05:37:03;11.97;;;7.30;;
8626;SDS011;4351;51.422;6.794;2023-05-23T05:39:32;17.07;;;8.63;;
8626;SDS011;4351;51.422;6.794;2023-05-23T05:42:00;15.60;;;9.23;;
8626;SDS011;4351;51.422;6.794;2023-05-23T05:44:30;15.53;;;8.40;;
8626;SDS011;4351;51.422;6.794;2023-05-23T05:46:58;14.17;;;8.37;;
8626;SDS011;4351;51.422;6.794;2023-05-23T05:49:26;12.37;;;7.93;;
8626;SDS011;4351;51.422;6.794;2023-05-23T05:51:55;12.47;;;7.27;;
8626;SDS011;4351;51.422;6.794;2023-05-23T05:54:23;12.00;;;7.90;;
8626;SDS011;4351;51.422;6.794;2023-05-23T05:56:53;12.87;;;7.37;;
8626;SDS011;4351;51.422;6.794;2023-05-23T05:59:21;12.57;;;7.83;;
8626;SDS011;4351;51.422;6.794;2023-05-23T06:01:50;13.10;;;8.20;;
8626;SDS011;4351;51.422;6.794;2023-05-23T06:04:18;13.57;;;8.40;;
8626;SDS011;4351;51.422;6.794;2023-05-23T06:06:47;12.87;;;8.33;;
8626;SDS011;4351;51.422;6.794;2023-05-23T06:09:15;14.50;;;8.03;;
8626;SDS011;4351;51.422;6.794;2023-05-23T06:11:43;13.07;;;7.17;;
8626;SDS011;4351;51.422;6.794;2023-05-23T06:14:13;17.17;;;8.87;;
8626;SDS011;4351;51.422;6.794;2023-05-23T06:16:44;13.77;;;8.27;;
8626;SDS011;4351;51.422;6.794;2023-05-23T06:19:12;12.60;;;7.90;;
8626;SDS011;4351;51.422;6.794;2023-05-23T06:21:40;15.43;;;7.70;;
8626;SDS011;4351;51.422;6.794;2023-05-23T06:24:09;12.23;;;7.23;;
8626;SDS011;4351;51.422;6.794;2023-05-23T06:26:37;14.43;;;8.57;;
8626;SDS011;4351;51.422;6.794;2023-05-23T06:29:06;14.40;;;9.03;;
8626;SDS011;4351;51.422;6.794;2023-05-23T06:31:36;16.50;;;9.20;;
8626;SDS011;4351;51.422;6.794;2023-05-23T06:34:04;22.77;;;9.60;;
8626;SDS011;4351;51.422;6.794;2023-05-23T06:36:32;20.47;;;10.33;;
8626;SDS011;4351;51.422;6.794;2023-05-23T06:39:00;16.23;;;9.40;;
8626;SDS011;4351;51.422;6.794;2023-05-23T06:41:29;14.07;;;9.10;;
8626;SDS011;4351;51.422;6.794;2023-05-23T06:43:57;16.43;;;8.77;;
8626;SDS011;4351;51.422;6.794;2023-05-23T06:46:28;13.93;;;8.87;;
8626;SDS011;4351;51.422;6.794;2023-05-23T06:48:58;14.90;;;7.70;;
8626;SDS011;4351;51.422;6.794;2023-05-23T06:51:40;13.20;;;6.97;;
8626;SDS011;4351;51.422;6.794;2023-05-23T06:54:08;16.23;;;8.50;;
8626;SDS011;4351;51.422;6.794;2023-05-23T06:56:36;19.93;;;8.33;;
8626;SDS011;4351;51.422;6.794;2023-05-23T06:59:04;13.87;;;8.30;;
8626;SDS011;4351;51.422;6.794;2023-05-23T07:01:34;13.43;;;8.67;;
8626;SDS011;4351;51.422;6.794;2023-05-23T07:04:04;13.87;;;9.67;;
8626;SDS011;4351;51.422;6.794;2023-05-23T07:06:33;17.40;;;9.37;;
8626;SDS011;4351;51.422;6.794;2023-05-23T07:09:03;14.30;;;8.37;;
8626;SDS011;4351;51.422;6.794;2023-05-23T07:11:31;12.47;;;7.30;;
8626;SDS011;4351;51.422;6.794;2023-05-23T07:14:00;13.80;;;8.43;;
8626;SDS011;4351;51.422;6.794;2023-05-23T07:16:38;16.07;;;8.27;;
8626;SDS011;4351;51.422;6.794;2023-05-23T07:19:08;17.80;;;7.43;;
8626;SDS011;4351;51.422;6.794;2023-05-23T07:21:42;14.50;;;7.57;;
8626;SDS011;4351;51.422;6.794;2023-05-23T07:24:12;14.30;;;7.70;;
8626;SDS011;4351;51.422;6.794;2023-05-23T07:26:40;17.87;;;7.87;;
8626;SDS011;4351;51.422;6.794;2023-05-23T07:29:09;12.83;;;7.27;;
8626;SDS011;4351;51.422;6.794;2023-05-23T07:31:37;15.50;;;7.23;;
8626;SDS011;4351;51.422;6.794;2023-05-23T07:34:06;17.73;;;7.73;;
8626;SDS011;4351;51.422;6.794;2023-05-23T07:36:44;17.13;;;7.57;;
8626;SDS011;4351;51.422;6.794;2023-05-23T07:39:13;17.07;;;7.20;;
8626;SDS011;4351;51.422;6.794;2023-05-23T07:41:48;15.23;;;7.17;;
8626;SDS011;4351;51.422;6.794;2023-05-23T07:44:17;17.17;;;7.50;;
8626;SDS011;4351;51.422;6.794;2023-05-23T07:46:50;14.83;;;7.67;;
8626;SDS011;4351;51.422;6.794;2023-05-23T07:49:19;13.40;;;7.13;;
8626;SDS011;4351;51.422;6.794;2023-05-23T07:51:48;19.47;;;8.63;;
8626;SDS011;4351;51.422;6.794;2023-05-23T07:54:16;17.20;;;7.60;;
8626;SDS011;4351;51.422;6.794;2023-05-23T07:56:44;15.40;;;9.03;;
8626;SDS011;4351;51.422;6.794;2023-05-23T07:59:13;13.50;;;9.30;;
8626;SDS011;4351;51.422;6.794;2023-05-23T08:01:42;20.47;;;9.17;;
8626;SDS011;4351;51.422;6.794;2023-05-23T08:04:14;18.27;;;9.10;;
8626;SDS011;4351;51.422;6.794;2023-05-23T08:06:49;20.77;;;10.87;;
8626;SDS011;4351;51.422;6.794;2023-05-23T08:09:50;17.60;;;8.63;;
8626;SDS011;4351;51.422;6.794;2023-05-23T08:12:19;19.53;;;8.63;;
8626;SDS011;4351;51.422;6.794;2023-05-23T08:14:53;21.27;;;11.70;;
8626;SDS011;4351;51.422;6.794;2023-05-23T08:17:23;18.33;;;10.87;;
8626;SDS011;4351;51.422;6.794;2023-05-23T08:19:52;24.37;;;11.37;;
8626;SDS011;4351;51.422;6.794;2023-05-23T08:22:21;25.00;;;12.57;;
8626;SDS011;4351;51.422;6.794;2023-05-23T08:24:49;22.10;;;12.00;;
8626;SDS011;4351;51.422;6.794;2023-05-23T08:27:18;24.30;;;13.60;;
8626;SDS011;4351;51.422;6.794;2023-05-23T08:29:49;22.43;;;12.53;;
8626;SDS011;4351;51.422;6.794;2023-05-23T08:32:18;20.20;;;11.27;;
8626;SDS011;4351;51.422;6.794;2023-05-23T08:34:46;23.60;;;11.53;;
8626;SDS011;4351;51.422;6.794;2023-05-23T08:37:14;22.03;;;11.07;;
8626;SDS011;4351;51.422;6.794;2023-05-23T08:39:44;22.90;;;11.27;;
8626;SDS011;4351;51.422;6.794;2023-05-23T08:42:30;25.53;;;12.27;;
8626;SDS011;4351;51.422;6.794;2023-05-23T08:44:59;23.70;;;11.30;;
8626;SDS011;4351;51.422;6.794;2023-05-23T08:47:27;20.57;;;9.73;;
8626;SDS011;4351;51.422;6.794;2023-05-23T08:50:00;28.90;;;13.97;;
8626;SDS011;4351;51.422;6.794;2023-05-23T08:52:30;33.90;;;19.33;;
8626;SDS011;4351;51.422;6.794;2023-05-23T08:55:03;35.43;;;21.33;;
8626;SDS011;4351;51.422;6.794;2023-05-23T08:57:32;25.43;;;13.90;;
8626;SDS011;4351;51.422;6.794;2023-05-23T09:00:18;28.70;;;13.33;;
8626;SDS011;4351;51.422;6.794;2023-05-23T09:02:46;24.63;;;13.57;;
8626;SDS011;4351;51.422;6.794;2023-05-23T09:05:31;27.47;;;12.63;;
8626;SDS011;4351;51.422;6.794;2023-05-23T09:07:59;22.63;;;11.30;;
8626;SDS011;4351;51.422;6.794;2023-05-23T09:10:28;24.67;;;12.70;;
8626;SDS011;4351;51.422;6.794;2023-05-23T09:12:58;23.87;;;12.77;;
8626;SDS011;4351;51.422;6.794;2023-05-23T09:15:27;19.13;;;11.57;;
8626;SDS011;4351;51.422;6.794;2023-05-23T09:17:58;19.93;;;9.57;;
8626;SDS011;4351;51.422;6.794;2023-05-23T09:20:30;12.50;;;7.07;;
8626;SDS011;4351;51.422;6.794;2023-05-23T09:23:04;16.40;;;7.17;;
8626;SDS011;4351;51.422;6.794;2023-05-23T09:25:35;22.80;;;7.93;;
8626;SDS011;4351;51.422;6.794;2023-05-23T09:28:06;20.07;;;7.67;;
8626;SDS011;4351;51.422;6.794;2023-05-23T09:30:37;15.07;;;7.57;;
8626;SDS011;4351;51.422;6.794;2023-05-23T09:33:06;18.83;;;7.87;;
8626;SDS011;4351;51.422;6.794;2023-05-23T09:35:34;14.47;;;8.13;;
8626;SDS011;4351;51.422;6.794;2023-05-23T09:38:02;18.10;;;9.47;;
8626;SDS011;4351;51.422;6.794;2023-05-23T09:40:30;19.87;;;7.77;;
8626;SDS011;4351;51.422;6.794;2023-05-23T09:43:03;16.70;;;8.40;;
8626;SDS011;4351;51.422;6.794;2023-05-23T09:45:32;20.80;;;8.97;;
8626;SDS011;4351;51.422;6.794;2023-05-23T09:48:01;22.97;;;9.77;;
8626;SDS011;4351;51.422;6.794;2023-05-23T09:50:30;18.27;;;9.90;;
8626;SDS011;4351;51.422;6.794;2023-05-23T09:53:02;19.50;;;9.47;;
8626;SDS011;4351;51.422;6.794;2023-05-23T09:55:29;25.97;;;12.37;;
8626;SDS011;4351;51.422;6.794;2023-05-23T09:57:58;21.80;;;12.20;;
8626;SDS011;4351;51.422;6.794;2023-05-23T10:00:28;25.30;;;12.57;;
8626;SDS011;4351;51.422;6.794;2023-05-23T10:03:00;23.20;;;10.70;;
8626;SDS011;4351;51.422;6.794;2023-05-23T10:05:40;24.00;;;12.57;;
8626;SDS011;4351;51.422;6.794;2023-05-23T10:08:12;22.93;;;14.43;;
8626;SDS011;4351;51.422;6.794;2023-05-23T10:11:07;24.80;;;13.03;;
8626;SDS011;4351;51.422;6.794;2023-05-23T10:14:04;18.20;;;8.87;;
8626;SDS011;4351;51.422;6.794;2023-05-23T10:16:37;14.07;;;9.00;;
8626;SDS011;4351;51.422;6.794;2023-05-23T10:19:12;16.53;;;7.23;;
8626;SDS011;4351;51.422;6.794;2023-05-23T10:21:48;9.10;;;5.77;;
8626;SDS011;4351;51.422;6.794;2023-05-23T10:24:17;10.67;;;5.10;;
8626;SDS011;4351;51.422;6.794;2023-05-23T10:26:46;12.07;;;5.27;;
8626;SDS011;4351;51.422;6.794;2023-05-23T10:29:14;8.23;;;5.10;;
8626;SDS011;4351;51.422;6.794;2023-05-23T10:31:44;16.80;;;6.70;;
8626;SDS011;4351;51.422;6.794;2023-05-23T10:34:14;13.53;;;5.40;;
8626;SDS011;4351;51.422;6.794;2023-05-23T10:36:51;11.83;;;5.37;;
8626;SDS011;4351;51.422;6.794;2023-05-23T10:39:27;11.97;;;5.40;;
8626;SDS011;4351;51.422;6.794;2023-05-23T10:42:21;7.70;;;4.23;;
8626;SDS011;4351;51.422;6.794;2023-05-23T10:45:12;12.40;;;5.33;;
8626;SDS011;4351;51.422;6.794;2023-05-23T10:47:42;10.87;;;4.90;;
8626;SDS011;4351;51.422;6.794;2023-05-23T10:50:11;12.50;;;5.27;;
8626;SDS011;4351;51.422;6.794;2023-05-23T10:52:40;18.17;;;5.67;;
8626;SDS011;4351;51.422;6.794;2023-05-23T10:55:12;14.63;;;5.77;;
8626;SDS011;4351;51.422;6.794;2023-05-23T10:57:43;14.30;;;6.30;;
8626;SDS011;4351;51.422;6.794;2023-05-23T11:00:11;12.00;;;5.40;;
8626;SDS011;4351;51.422;6.794;2023-05-23T11:02:48;7.07;;;3.97;;
8626;SDS011;4351;51.422;6.794;2023-05-23T11:05:21;11.77;;;4.57;;
8626;SDS011;4351;51.422;6.794;2023-05-23T11:08:05;9.00;;;4.43;;
8626;SDS011;4351;51.422;6.794;2023-05-23T11:10:58;13.47;;;4.60;;
8626;SDS011;4351;51.422;6.794;2023-05-23T11:16:30;10.27;;;4.37;;
8626;SDS011;4351;51.422;6.794;2023-05-23T11:19:23;10.63;;;4.33;;
8626;SDS011;4351;51.422;6.794;2023-05-23T11:21:54;10.97;;;3.90;;
8626;SDS011;4351;51.422;6.794;2023-05-23T11:27:17;8.77;;;3.83;;
8626;SDS011;4351;51.422;6.794;2023-05-23T11:30:03;6.80;;;3.73;;
8626;SDS011;4351;51.422;6.794;2023-05-23T11:32:33;8.67;;;3.70;;
8626;SDS011;4351;51.422;6.794;2023-05-23T11:35:04;9.80;;;4.37;;
8626;SDS011;4351;51.422;6.794;2023-05-23T11:37:33;11.27;;;4.13;;
8626;SDS011;4351;51.422;6.794;2023-05-23T11:42:52;13.70;;;4.40;;
8626;SDS011;4351;51.422;6.794;2023-05-23T11:45:20;13.97;;;4.63;;
8626;SDS011;4351;51.422;6.794;2023-05-23T11:47:48;16.10;;;5.27;;
8626;SDS011;4351;51.422;6.794;2023-05-23T11:50:18;15.73;;;5.30;;
8626;SDS011;4351;51.422;6.794;2023-05-23T11:52:46;13.07;;;5.03;;
8626;SDS011;4351;51.422;6.794;2023-05-23T11:55:18;13.60;;;4.60;;
8626;SDS011;4351;51.422;6.794;2023-05-23T11:57:46;17.63;;;5.07;;
8626;SDS011;4351;51.422;6.794;2023-05-23T12:00:15;11.60;;;4.70;;
8626;SDS011;4351;51.422;6.794;2023-05-23T12:02:44;17.20;;;4.33;;
8626;SDS011;4351;51.422;6.794;2023-05-23T12:05:13;11.57;;;3.67;;
8626;SDS011;4351;51.422;6.794;2023-05-23T12:07:43;11.70;;;4.03;;
8626;SDS011;4351;51.422;6.794;2023-05-23T12:10:13;11.60;;;3.70;;
8626;SDS011;4351;51.422;6.794;2023-05-23T12:12:42;13.27;;;4.20;;
8626;SDS011;4351;51.422;6.794;2023-05-23T12:15:13;13.17;;;3.40;;
8626;SDS011;4351;51.422;6.794;2023-05-23T12:17:43;10.40;;;3.83;;
8626;SDS011;4351;51.422;6.794;2023-05-23T12:20:11;10.67;;;3.97;;
8626;SDS011;4351;51.422;6.794;2023-05-23T12:22:40;11.50;;;3.90;;
8626;SDS011;4351;51.422;6.794;2023-05-23T12:25:10;13.50;;;4.67;;
8626;SDS011;4351;51.422;6.794;2023-05-23T12:27:39;13.70;;;5.53;;
8626;SDS011;4351;51.422;6.794;2023-05-23T12:30:09;11.57;;;4.63;;
8626;SDS011;4351;51.422;6.794;2023-05-23T12:32:40;12.67;;;4.03;;
8626;SDS011;4351;51.422;6.794;2023-05-23T12:35:10;14.40;;;4.30;;
8626;SDS011;4351;51.422;6.794;2023-05-23T12:37:39;16.17;;;4.40;;
8626;SDS011;4351;51.422;6.794;2023-05-23T12:40:10;9.13;;;3.97;;
8626;SDS011;4351;51.422;6.794;2023-05-23T12:42:44;12.17;;;3.63;;
8626;SDS011;4351;51.422;6.794;2023-05-23T12:45:13;12.13;;;3.70;;
8626;SDS011;4351;51.422;6.794;2023-05-23T12:47:41;13.63;;;4.37;;
8626;SDS011;4351;51.422;6.794;2023-05-23T12:50:09;12.17;;;3.60;;
8626;SDS011;4351;51.422;6.794;2023-05-23T12:52:38;16.13;;;4.27;;
8626;SDS011;4351;51.422;6.794;2023-05-23T12:55:07;11.80;;;3.87;;
8626;SDS011;4351;51.422;6.794;2023-05-23T12:57:37;8.93;;;3.50;;
8626;SDS011;4351;51.422;6.794;2023-05-23T13:00:05;12.37;;;4.13;;
8626;SDS011;4351;51.422;6.794;2023-05-23T13:02:34;13.07;;;3.60;;
8626;SDS011;4351;51.422;6.794;2023-05-23T13:05:02;15.80;;;4.27;;
8626;SDS011;4351;51.422;6.794;2023-05-23T13:07:31;14.00;;;4.40;;
8626;SDS011;4351;51.422;6.794;2023-05-23T13:09:59;10.60;;;3.57;;
8626;SDS011;4351;51.422;6.794;2023-05-23T13:12:28;11.50;;;3.77;;
8626;SDS011;4351;51.422;6.794;2023-05-23T13:14:57;12.33;;;4.30;;
8626;SDS011;4351;51.422;6.794;2023-05-23T13:17:25;12.40;;;4.30;;
8626;SDS011;4351;51.422;6.794;2023-05-23T13:19:53;12.73;;;4.10;;
8626;SDS011;4351;51.422;6.794;2023-05-23T13:22:21;16.50;;;4.60;;
8626;SDS011;4351;51.422;6.794;2023-05-23T13:24:49;11.13;;;4.23;;
8626;SDS011;4351;51.422;6.794;2023-05-23T13:27:17;11.07;;;4.20;;
8626;SDS011;4351;51.422;6.794;2023-05-23T13:29:45;18.63;;;4.60;;
8626;SDS011;4351;51.422;6.794;2023-05-23T13:32:14;12.97;;;3.90;;
8626;SDS011;4351;51.422;6.794;2023-05-23T13:34:42;13.97;;;3.70;;
8626;SDS011;4351;51.422;6.794;2023-05-23T13:37:10;14.20;;;3.93;;
8626;SDS011;4351;51.422;6.794;2023-05-23T13:39:38;12.57;;;3.57;;
8626;SDS011;4351;51.422;6.794;2023-05-23T13:42:06;15.10;;;3.80;;
8626;SDS011;4351;51.422;6.794;2023-05-23T13:44:34;8.77;;;3.43;;
8626;SDS011;4351;51.422;6.794;2023-05-23T13:47:09;10.33;;;3.53;;
8626;SDS011;4351;51.422;6.794;2023-05-23T13:49:40;9.23;;;3.23;;
8626;SDS011;4351;51.422;6.794;2023-05-23T13:52:08;13.37;;;3.80;;
8626;SDS011;4351;51.422;6.794;2023-05-23T13:54:37;9.97;;;3.40;;
8626;SDS011;4351;51.422;6.794;2023-05-23T13:57:05;11.60;;;4.00;;
8626;SDS011;4351;51.422;6.794;2023-05-23T13:59:33;10.63;;;3.40;;
8626;SDS011;4351;51.422;6.794;2023-05-23T14:02:01;12.57;;;3.53;;
8626;SDS011;4351;51.422;6.794;2023-05-23T14:04:29;12.00;;;3.90;;
8626;SDS011;4351;51.422;6.794;2023-05-23T14:06:58;12.70;;;4.17;;
8626;SDS011;4351;51.422;6.794;2023-05-23T14:09:26;11.20;;;3.50;;
8626;SDS011;4351;51.422;6.794;2023-05-23T14:11:53;10.73;;;3.13;;
8626;SDS011;4351;51.422;6.794;2023-05-23T14:14:22;12.87;;;3.77;;
8626;SDS011;4351;51.422;6.794;2023-05-23T14:16:50;14.83;;;4.07;;
8626;SDS011;4351;51.422;6.794;2023-05-23T14:19:18;11.30;;;4.00;;
8626;SDS011;4351;51.422;6.794;2023-05-23T14:21:47;12.87;;;3.70;;
8626;SDS011;4351;51.422;6.794;2023-05-23T14:24:16;13.00;;;4.30;;
8626;SDS011;4351;51.422;6.794;2023-05-23T14:26:44;9.60;;;3.93;;
8626;SDS011;4351;51.422;6.794;2023-05-23T14:29:12;11.60;;;3.70;;
8626;SDS011;4351;51.422;6.794;2023-05-23T14:31:40;9.83;;;3.47;;
8626;SDS011;4351;51.422;6.794;2023-05-23T14:34:08;9.17;;;3.20;;
8626;SDS011;4351;51.422;6.794;2023-05-23T14:36:36;9.03;;;3.40;;
8626;SDS011;4351;51.422;6.794;2023-05-23T14:39:04;7.57;;;3.40;;
8626;SDS011;4351;51.422;6.794;2023-05-23T14:41:38;8.97;;;3.47;;
8626;SDS011;4351;51.422;6.794;2023-05-23T14:44:06;9.47;;;3.00;;
8626;SDS011;4351;51.422;6.794;2023-05-23T14:46:34;8.03;;;3.20;;
8626;SDS011;4351;51.422;6.794;2023-05-23T14:49:01;10.67;;;3.90;;
8626;SDS011;4351;51.422;6.794;2023-05-23T14:51:29;9.67;;;3.50;;
8626;SDS011;4351;51.422;6.794;2023-05-23T14:54:14;11.40;;;3.17;;
8626;SDS011;4351;51.422;6.794;2023-05-23T14:56:43;9.10;;;3.50;;
8626;SDS011;4351;51.422;6.794;2023-05-23T14:59:12;12.40;;;3.50;;
8626;SDS011;4351;51.422;6.794;2023-05-23T15:01:40;10.70;;;3.30;;
8626;SDS011;4351;51.422;6.794;2023-05-23T15:04:08;8.87;;;3.17;;
8626;SDS011;4351;51.422;6.794;2023-05-23T15:06:39;9.83;;;3.43;;
8626;SDS011;4351;51.422;6.794;2023-05-23T15:09:08;9.47;;;3.10;;
8626;SDS011;4351;51.422;6.794;2023-05-23T15:11:36;11.20;;;3.13;;
8626;SDS011;4351;51.422;6.794;2023-05-23T15:14:07;8.97;;;2.87;;
8626;SDS011;4351;51.422;6.794;2023-05-23T15:16:34;9.23;;;3.33;;
8626;SDS011;4351;51.422;6.794;2023-05-23T15:19:02;11.40;;;3.07;;
8626;SDS011;4351;51.422;6.794;2023-05-23T15:21:31;11.27;;;3.40;;
8626;SDS011;4351;51.422;6.794;2023-05-23T15:23:59;10.63;;;3.10;;
8626;SDS011;4351;51.422;6.794;2023-05-23T15:26:27;8.67;;;3.20;;
8626;SDS011;4351;51.422;6.794;2023-05-23T15:28:55;10.53;;;3.53;;
8626;SDS011;4351;51.422;6.794;2023-05-23T15:31:25;10.63;;;3.27;;
8626;SDS011;4351;51.422;6.794;2023-05-23T15:33:53;13.03;;;3.03;;